sensor_id;sensor_type;location;lat;lon;timestamp;temperature;humidity
14016;DHT22;7083;48.854;9.158;2024-03-02T00:01:00;6.60;99.90
14016;DHT22;7083;48.854;9.158;2024-03-02T00:03:32;4.50;99.90
14016;DHT22;7083;48.854;9.158;2024-03-02T00:06:00;4.70;99.90
14016;DHT22;7083;48.854;9.158;2024-03-02T00:08:30;4.60;99.90
14016;DHT22;7083;48.854;9.158;2024-03-02T00:10:57;4.40;99.90
14016;DHT22;7083;48.854;9.158;2024-03-02T00:14:10;4.50;99.90
14016;DHT22;7083;48.854;9.158;2024-03-02T00:17:16;4.90;99.90
14016;DHT22;7083;48.854;9.158;2024-03-02T00:20:15;3.50;99.90
14016;DHT22;7083;48.854;9.158;2024-03-02T00:22:51;4.50;99.90
14016;DHT22;7083;48.854;9.158;2024-03-02T00:31:55;5.10;99.90
14016;DHT22;7083;48.854;9.158;2024-03-02T00:34:22;4.70;99.90
14016;DHT22;7083;48.854;9.158;2024-03-02T00:36:49;7.00;99.90
14016;DHT22;7083;48.854;9.158;2024-03-02T00:39:16;4.50;99.90
14016;DHT22;7083;48.854;9.158;2024-03-02T00:41:43;4.50;99.90
14016;DHT22;7083;48.854;9.158;2024-03-02T00:44:12;4.60;99.90
14016;DHT22;7083;48.854;9.158;2024-03-02T00:46:40;4.60;99.90
14016;DHT22;7083;48.854;9.158;2024-03-02T00:49:17;4.60;99.90
14016;DHT22;7083;48.854;9.158;2024-03-02T00:51:46;4.60;99.90
14016;DHT22;7083;48.854;9.158;2024-03-02T00:54:14;4.60;99.90
14016;DHT22;7083;48.854;9.158;2024-03-02T00:56:42;4.60;99.90
14016;DHT22;7083;48.854;9.158;2024-03-02T00:59:10;4.50;99.90
14016;DHT22;7083;48.854;9.158;2024-03-02T01:01:37;4.60;99.90
14016;DHT22;7083;48.854;9.158;2024-03-02T01:04:04;4.60;99.90
14016;DHT22;7083;48.854;9.158;2024-03-02T01:06:32;4.60;99.90
14016;DHT22;7083;48.854;9.158;2024-03-02T01:08:59;6.50;99.90
14016;DHT22;7083;48.854;9.158;2024-03-02T01:11:26;4.60;99.90
14016;DHT22;7083;48.854;9.158;2024-03-02T01:13:53;4.60;99.90
14016;DHT22;7083;48.854;9.158;2024-03-02T01:16:19;4.50;99.90
14016;DHT22;7083;48.854;9.158;2024-03-02T01:18:46;4.50;99.90
14016;DHT22;7083;48.854;9.158;2024-03-02T01:21:13;4.50;99.90
14016;DHT22;7083;48.854;9.158;2024-03-02T01:23:41;4.40;99.90
14016;DHT22;7083;48.854;9.158;2024-03-02T01:26:07;4.40;99.90
14016;DHT22;7083;48.854;9.158;2024-03-02T01:28:34;4.20;99.90
14016;DHT22;7083;48.854;9.158;2024-03-02T01:31:01;4.20;99.90
14016;DHT22;7083;48.854;9.158;2024-03-02T01:33:28;6.00;99.90
14016;DHT22;7083;48.854;9.158;2024-03-02T01:35:54;4.20;99.90
14016;DHT22;7083;48.854;9.158;2024-03-02T01:38:21;4.10;99.90
14016;DHT22;7083;48.854;9.158;2024-03-02T01:40:49;4.10;99.90
14016;DHT22;7083;48.854;9.158;2024-03-02T01:43:17;4.00;99.90
14016;DHT22;7083;48.854;9.158;2024-03-02T01:45:43;3.90;99.90
14016;DHT22;7083;48.854;9.158;2024-03-02T01:48:10;3.90;99.90
14016;DHT22;7083;48.854;9.158;2024-03-02T01:50:37;3.80;99.90
14016;DHT22;7083;48.854;9.158;2024-03-02T01:53:04;3.70;99.90
14016;DHT22;7083;48.854;9.158;2024-03-02T01:55:31;3.50;99.90
14016;DHT22;7083;48.854;9.158;2024-03-02T01:58:01;3.50;99.90
14016;DHT22;7083;48.854;9.158;2024-03-02T02:00:52;3.50;99.90
14016;DHT22;7083;48.854;9.158;2024-03-02T02:03:20;5.10;99.90
14016;DHT22;7083;48.854;9.158;2024-03-02T02:05:46;3.30;99.90
14016;DHT22;7083;48.854;9.158;2024-03-02T02:22:35;3.20;99.90
14016;DHT22;7083;48.854;9.158;2024-03-02T02:25:09;3.30;99.90
14016;DHT22;7083;48.854;9.158;2024-03-02T02:27:55;3.10;99.90
14016;DHT22;7083;48.854;9.158;2024-03-02T02:30:32;3.70;99.90
14016;DHT22;7083;48.854;9.158;2024-03-02T02:32:59;2.90;99.90
14016;DHT22;7083;48.854;9.158;2024-03-02T02:35:26;2.90;99.90
14016;DHT22;7083;48.854;9.158;2024-03-02T02:37:55;2.80;99.90
14016;DHT22;7083;48.854;9.158;2024-03-02T02:43:45;2.60;99.90
14016;DHT22;7083;48.854;9.158;2024-03-02T02:46:11;2.50;99.90
14016;DHT22;7083;48.854;9.158;2024-03-02T02:48:38;2.40;99.90
14016;DHT22;7083;48.854;9.158;2024-03-02T02:51:05;2.40;99.90
14016;DHT22;7083;48.854;9.158;2024-03-02T02:53:33;2.30;99.90
14016;DHT22;7083;48.854;9.158;2024-03-02T02:56:01;2.30;99.90
14016;DHT22;7083;48.854;9.158;2024-03-02T02:58:27;2.20;99.90
14016;DHT22;7083;48.854;9.158;2024-03-02T03:00:54;2.20;99.90
14016;DHT22;7083;48.854;9.158;2024-03-02T03:03:22;2.10;99.90
14016;DHT22;7083;48.854;9.158;2024-03-02T03:05:48;2.20;99.90
14016;DHT22;7083;48.854;9.158;2024-03-02T03:08:15;2.20;99.90
14016;DHT22;7083;48.854;9.158;2024-03-02T03:10:43;2.20;99.90
14016;DHT22;7083;48.854;9.158;2024-03-02T03:13:10;2.00;99.90
14016;DHT22;7083;48.854;9.158;2024-03-02T03:15:37;2.00;99.90
14016;DHT22;7083;48.854;9.158;2024-03-02T03:18:04;2.00;99.90
14016;DHT22;7083;48.854;9.158;2024-03-02T03:20:31;1.90;99.90
14016;DHT22;7083;48.854;9.158;2024-03-02T03:22:59;1.90;99.90
14016;DHT22;7083;48.854;9.158;2024-03-02T03:25:25;1.80;99.90
14016;DHT22;7083;48.854;9.158;2024-03-02T03:27:53;1.80;99.90
14016;DHT22;7083;48.854;9.158;2024-03-02T03:30:20;1.80;99.90
14016;DHT22;7083;48.854;9.158;2024-03-02T03:32:47;1.80;99.90
14016;DHT22;7083;48.854;9.158;2024-03-02T03:35:14;2.50;99.90
14016;DHT22;7083;48.854;9.158;2024-03-02T03:37:41;1.60;99.90
14016;DHT22;7083;48.854;9.158;2024-03-02T03:40:08;1.70;99.90
14016;DHT22;7083;48.854;9.158;2024-03-02T03:42:36;1.60;99.90
14016;DHT22;7083;48.854;9.158;2024-03-02T03:45:05;1.60;99.90
14016;DHT22;7083;48.854;9.158;2024-03-02T03:47:32;1.60;99.90
14016;DHT22;7083;48.854;9.158;2024-03-02T03:49:58;1.50;99.90
14016;DHT22;7083;48.854;9.158;2024-03-02T03:52:25;1.50;99.90
14016;DHT22;7083;48.854;9.158;2024-03-02T03:54:52;1.50;99.90
14016;DHT22;7083;48.854;9.158;2024-03-02T03:57:19;1.40;99.90
14016;DHT22;7083;48.854;9.158;2024-03-02T03:59:46;2.80;99.90
14016;DHT22;7083;48.854;9.158;2024-03-02T04:02:14;1.50;99.90
14016;DHT22;7083;48.854;9.158;2024-03-02T04:04:41;1.50;99.90
14016;DHT22;7083;48.854;9.158;2024-03-02T04:07:08;1.50;99.90
14016;DHT22;7083;48.854;9.158;2024-03-02T04:09:35;1.40;99.90
14016;DHT22;7083;48.854;9.158;2024-03-02T04:12:02;1.50;99.90
14016;DHT22;7083;48.854;9.158;2024-03-02T04:14:29;1.60;99.90
14016;DHT22;7083;48.854;9.158;2024-03-02T04:16:56;1.50;99.90
14016;DHT22;7083;48.854;9.158;2024-03-02T04:19:24;1.60;99.90
14016;DHT22;7083;48.854;9.158;2024-03-02T04:21:50;1.50;99.90
14016;DHT22;7083;48.854;9.158;2024-03-02T04:24:17;1.40;99.90
14016;DHT22;7083;48.854;9.158;2024-03-02T04:26:44;1.50;99.90
14016;DHT22;7083;48.854;9.158;2024-03-02T04:29:10;1.50;99.90
14016;DHT22;7083;48.854;9.158;2024-03-02T04:31:37;1.60;99.90
14016;DHT22;7083;48.854;9.158;2024-03-02T04:34:04;1.30;99.90
14016;DHT22;7083;48.854;9.158;2024-03-02T04:36:32;1.50;99.90
14016;DHT22;7083;48.854;9.158;2024-03-02T04:38:59;1.70;99.90
14016;DHT22;7083;48.854;9.158;2024-03-02T04:41:25;1.60;99.90
14016;DHT22;7083;48.854;9.158;2024-03-02T04:43:53;1.60;99.90
14016;DHT22;7083;48.854;9.158;2024-03-02T04:46:20;1.60;99.90
14016;DHT22;7083;48.854;9.158;2024-03-02T04:48:46;1.80;99.90
14016;DHT22;7083;48.854;9.158;2024-03-02T04:51:14;1.50;99.90
14016;DHT22;7083;48.854;9.158;2024-03-02T04:53:42;1.60;99.90
14016;DHT22;7083;48.854;9.158;2024-03-02T04:56:08;1.40;99.90
14016;DHT22;7083;48.854;9.158;2024-03-02T04:59:06;1.50;99.90
14016;DHT22;7083;48.854;9.158;2024-03-02T05:01:32;1.30;99.90
14016;DHT22;7083;48.854;9.158;2024-03-02T05:03:59;1.30;99.90
14016;DHT22;7083;48.854;9.158;2024-03-02T05:06:26;1.30;99.90
14016;DHT22;7083;48.854;9.158;2024-03-02T05:08:54;1.40;99.90
14016;DHT22;7083;48.854;9.158;2024-03-02T05:11:22;2.20;99.90
14016;DHT22;7083;48.854;9.158;2024-03-02T05:14:06;1.40;99.90
14016;DHT22;7083;48.854;9.158;2024-03-02T05:16:33;1.40;99.90
14016;DHT22;7083;48.854;9.158;2024-03-02T05:19:00;4.40;99.90
14016;DHT22;7083;48.854;9.158;2024-03-02T05:21:27;1.40;99.90
14016;DHT22;7083;48.854;9.158;2024-03-02T05:23:55;1.40;99.90
14016;DHT22;7083;48.854;9.158;2024-03-02T05:26:22;1.30;99.90
14016;DHT22;7083;48.854;9.158;2024-03-02T05:28:50;1.40;99.90
14016;DHT22;7083;48.854;9.158;2024-03-02T05:31:19;1.30;99.90
14016;DHT22;7083;48.854;9.158;2024-03-02T05:33:45;1.50;99.90
14016;DHT22;7083;48.854;9.158;2024-03-02T05:36:12;1.30;99.90
14016;DHT22;7083;48.854;9.158;2024-03-02T05:38:39;1.60;99.90
14016;DHT22;7083;48.854;9.158;2024-03-02T05:41:07;1.60;99.90
14016;DHT22;7083;48.854;9.158;2024-03-02T05:43:34;1.60;99.90
14016;DHT22;7083;48.854;9.158;2024-03-02T05:46:01;1.50;99.90
14016;DHT22;7083;48.854;9.158;2024-03-02T05:48:28;1.70;99.90
14016;DHT22;7083;48.854;9.158;2024-03-02T05:50:55;1.70;99.90
14016;DHT22;7083;48.854;9.158;2024-03-02T05:53:27;1.60;99.90
14016;DHT22;7083;48.854;9.158;2024-03-02T05:55:55;1.60;99.90
14016;DHT22;7083;48.854;9.158;2024-03-02T05:58:25;1.80;99.90
14016;DHT22;7083;48.854;9.158;2024-03-02T06:01:03;2.60;99.90
14016;DHT22;7083;48.854;9.158;2024-03-02T06:03:32;1.90;99.90
14016;DHT22;7083;48.854;9.158;2024-03-02T06:05:58;1.90;99.90
14016;DHT22;7083;48.854;9.158;2024-03-02T06:08:25;1.60;99.90
14016;DHT22;7083;48.854;9.158;2024-03-02T06:10:55;1.30;99.90
14016;DHT22;7083;48.854;9.158;2024-03-02T06:13:22;2.60;99.90
14016;DHT22;7083;48.854;9.158;2024-03-02T06:15:50;1.70;99.90
14016;DHT22;7083;48.854;9.158;2024-03-02T06:18:17;1.60;99.90
14016;DHT22;7083;48.854;9.158;2024-03-02T06:20:43;1.70;99.90
14016;DHT22;7083;48.854;9.158;2024-03-02T06:23:10;1.70;99.90
14016;DHT22;7083;48.854;9.158;2024-03-02T06:25:39;2.30;99.90
14016;DHT22;7083;48.854;9.158;2024-03-02T06:28:06;1.90;99.90
14016;DHT22;7083;48.854;9.158;2024-03-02T06:30:33;1.90;99.90
14016;DHT22;7083;48.854;9.158;2024-03-02T06:33:01;2.00;99.90
14016;DHT22;7083;48.854;9.158;2024-03-02T06:35:29;2.70;99.90
14016;DHT22;7083;48.854;9.158;2024-03-02T06:38:04;2.50;99.90
14016;DHT22;7083;48.854;9.158;2024-03-02T06:40:33;2.50;99.90
14016;DHT22;7083;48.854;9.158;2024-03-02T06:45:48;2.60;99.90
14016;DHT22;7083;48.854;9.158;2024-03-02T06:48:18;2.60;99.90
14016;DHT22;7083;48.854;9.158;2024-03-02T06:50:51;2.90;99.90
14016;DHT22;7083;48.854;9.158;2024-03-02T06:53:26;3.10;99.90
14016;DHT22;7083;48.854;9.158;2024-03-02T06:55:56;5.40;99.90
14016;DHT22;7083;48.854;9.158;2024-03-02T06:58:44;4.20;99.90
14016;DHT22;7083;48.854;9.158;2024-03-02T07:01:13;3.50;99.90
14016;DHT22;7083;48.854;9.158;2024-03-02T07:03:41;4.70;99.90
14016;DHT22;7083;48.854;9.158;2024-03-02T07:06:26;3.70;99.90
14016;DHT22;7083;48.854;9.158;2024-03-02T07:08:55;4.00;99.90
14016;DHT22;7083;48.854;9.158;2024-03-02T07:11:27;4.40;99.90
14016;DHT22;7083;48.854;9.158;2024-03-02T07:13:55;3.70;99.90
14016;DHT22;7083;48.854;9.158;2024-03-02T07:16:30;4.10;99.90
14016;DHT22;7083;48.854;9.158;2024-03-02T07:19:06;4.40;99.90
14016;DHT22;7083;48.854;9.158;2024-03-02T07:21:51;4.40;99.90
14016;DHT22;7083;48.854;9.158;2024-03-02T07:24:20;5.30;99.90
14016;DHT22;7083;48.854;9.158;2024-03-02T07:26:47;4.00;99.90
14016;DHT22;7083;48.854;9.158;2024-03-02T07:29:17;5.10;99.90
14016;DHT22;7083;48.854;9.158;2024-03-02T07:31:44;5.00;99.90
14016;DHT22;7083;48.854;9.158;2024-03-02T07:34:15;4.80;99.90
14016;DHT22;7083;48.854;9.158;2024-03-02T07:36:44;2.30;99.90
14016;DHT22;7083;48.854;9.158;2024-03-02T07:39:10;4.80;99.90
14016;DHT22;7083;48.854;9.158;2024-03-02T07:41:37;5.90;99.90
14016;DHT22;7083;48.854;9.158;2024-03-02T07:44:04;4.80;99.90
14016;DHT22;7083;48.854;9.158;2024-03-02T07:46:40;5.90;99.90
14016;DHT22;7083;48.854;9.158;2024-03-02T07:49:08;4.70;99.90
14016;DHT22;7083;48.854;9.158;2024-03-02T07:51:36;4.80;99.90
14016;DHT22;7083;48.854;9.158;2024-03-02T07:54:03;4.70;99.90
14016;DHT22;7083;48.854;9.158;2024-03-02T07:56:30;5.00;99.90
14016;DHT22;7083;48.854;9.158;2024-03-02T07:58:57;4.80;99.90
14016;DHT22;7083;48.854;9.158;2024-03-02T08:01:27;4.90;99.90
14016;DHT22;7083;48.854;9.158;2024-03-02T08:03:54;4.70;99.90
14016;DHT22;7083;48.854;9.158;2024-03-02T08:06:22;4.70;99.90
14016;DHT22;7083;48.854;9.158;2024-03-02T08:08:53;5.60;99.90
14016;DHT22;7083;48.854;9.158;2024-03-02T08:11:20;4.70;99.90
14016;DHT22;7083;48.854;9.158;2024-03-02T08:13:47;4.50;99.90
14016;DHT22;7083;48.854;9.158;2024-03-02T08:16:14;4.60;99.90
14016;DHT22;7083;48.854;9.158;2024-03-02T08:18:46;6.40;99.90
14016;DHT22;7083;48.854;9.158;2024-03-02T08:21:13;4.70;99.90
14016;DHT22;7083;48.854;9.158;2024-03-02T08:23:40;4.70;99.90
14016;DHT22;7083;48.854;9.158;2024-03-02T08:26:09;4.90;99.90
14016;DHT22;7083;48.854;9.158;2024-03-02T08:28:36;4.80;99.90
14016;DHT22;7083;48.854;9.158;2024-03-02T08:31:05;4.90;99.90
14016;DHT22;7083;48.854;9.158;2024-03-02T08:33:32;5.00;99.90
14016;DHT22;7083;48.854;9.158;2024-03-02T08:35:59;5.00;99.90
14016;DHT22;7083;48.854;9.158;2024-03-02T08:38:26;5.10;99.90
14016;DHT22;7083;48.854;9.158;2024-03-02T08:40:53;5.10;99.90
14016;DHT22;7083;48.854;9.158;2024-03-02T08:43:21;5.20;99.90
14016;DHT22;7083;48.854;9.158;2024-03-02T08:45:48;5.30;99.90
14016;DHT22;7083;48.854;9.158;2024-03-02T08:48:16;5.30;99.90
14016;DHT22;7083;48.854;9.158;2024-03-02T08:50:43;5.40;99.90
14016;DHT22;7083;48.854;9.158;2024-03-02T08:53:09;5.50;99.90
14016;DHT22;7083;48.854;9.158;2024-03-02T08:55:36;5.60;99.90
14016;DHT22;7083;48.854;9.158;2024-03-02T08:58:03;5.70;99.90
14016;DHT22;7083;48.854;9.158;2024-03-02T09:00:31;5.80;99.90
14016;DHT22;7083;48.854;9.158;2024-03-02T09:02:58;5.90;99.90
14016;DHT22;7083;48.854;9.158;2024-03-02T09:05:25;6.00;99.90
14016;DHT22;7083;48.854;9.158;2024-03-02T09:07:51;6.10;99.90
14016;DHT22;7083;48.854;9.158;2024-03-02T09:10:18;6.20;99.90
14016;DHT22;7083;48.854;9.158;2024-03-02T09:12:44;6.30;99.90
14016;DHT22;7083;48.854;9.158;2024-03-02T09:15:11;6.40;99.90
14016;DHT22;7083;48.854;9.158;2024-03-02T09:17:39;6.40;99.90
14016;DHT22;7083;48.854;9.158;2024-03-02T09:20:07;6.50;99.90
14016;DHT22;7083;48.854;9.158;2024-03-02T09:22:34;6.60;99.90
14016;DHT22;7083;48.854;9.158;2024-03-02T09:25:00;6.70;99.90
14016;DHT22;7083;48.854;9.158;2024-03-02T09:27:27;6.80;99.90
14016;DHT22;7083;48.854;9.158;2024-03-02T09:29:54;6.90;99.90
14016;DHT22;7083;48.854;9.158;2024-03-02T09:32:20;7.00;99.90
14016;DHT22;7083;48.854;9.158;2024-03-02T09:34:48;7.20;99.90
14016;DHT22;7083;48.854;9.158;2024-03-02T09:37:15;7.10;99.90
14016;DHT22;7083;48.854;9.158;2024-03-02T09:39:43;7.20;99.90
14016;DHT22;7083;48.854;9.158;2024-03-02T09:42:11;7.30;99.90
14016;DHT22;7083;48.854;9.158;2024-03-02T09:44:39;7.40;99.90
14016;DHT22;7083;48.854;9.158;2024-03-02T09:47:07;7.40;99.90
14016;DHT22;7083;48.854;9.158;2024-03-02T09:49:34;7.60;99.90
14016;DHT22;7083;48.854;9.158;2024-03-02T09:52:03;7.60;99.90
14016;DHT22;7083;48.854;9.158;2024-03-02T09:54:31;7.70;99.90
14016;DHT22;7083;48.854;9.158;2024-03-02T09:56:58;7.80;99.90
14016;DHT22;7083;48.854;9.158;2024-03-02T09:59:26;7.80;99.90
14016;DHT22;7083;48.854;9.158;2024-03-02T10:01:58;7.90;99.90
14016;DHT22;7083;48.854;9.158;2024-03-02T10:04:26;8.10;99.90
14016;DHT22;7083;48.854;9.158;2024-03-02T10:07:11;8.10;99.90
14016;DHT22;7083;48.854;9.158;2024-03-02T10:09:38;8.20;99.90
14016;DHT22;7083;48.854;9.158;2024-03-02T10:12:07;8.30;99.90
14016;DHT22;7083;48.854;9.158;2024-03-02T10:14:34;8.40;99.90
14016;DHT22;7083;48.854;9.158;2024-03-02T10:17:04;8.50;99.90
14016;DHT22;7083;48.854;9.158;2024-03-02T10:19:31;8.60;99.90
14016;DHT22;7083;48.854;9.158;2024-03-02T10:22:00;8.80;99.90
14016;DHT22;7083;48.854;9.158;2024-03-02T10:24:35;8.90;99.90
14016;DHT22;7083;48.854;9.158;2024-03-02T10:27:07;9.10;99.90
14016;DHT22;7083;48.854;9.158;2024-03-02T10:29:36;9.20;99.90
14016;DHT22;7083;48.854;9.158;2024-03-02T10:32:04;9.30;99.90
14016;DHT22;7083;48.854;9.158;2024-03-02T10:34:32;9.50;99.90
14016;DHT22;7083;48.854;9.158;2024-03-02T10:36:59;9.60;99.90
14016;DHT22;7083;48.854;9.158;2024-03-02T10:39:26;9.80;99.90
14016;DHT22;7083;48.854;9.158;2024-03-02T10:41:55;9.90;99.90
14016;DHT22;7083;48.854;9.158;2024-03-02T10:44:23;9.90;99.90
14016;DHT22;7083;48.854;9.158;2024-03-02T10:46:50;10.10;99.90
14016;DHT22;7083;48.854;9.158;2024-03-02T10:49:19;10.10;99.90
14016;DHT22;7083;48.854;9.158;2024-03-02T10:51:47;10.30;99.90
14016;DHT22;7083;48.854;9.158;2024-03-02T10:54:14;10.40;99.90
14016;DHT22;7083;48.854;9.158;2024-03-02T10:56:42;10.50;99.90
14016;DHT22;7083;48.854;9.158;2024-03-02T10:59:17;10.50;99.90
14016;DHT22;7083;48.854;9.158;2024-03-02T11:01:48;10.60;99.90
14016;DHT22;7083;48.854;9.158;2024-03-02T11:04:18;10.70;99.90
14016;DHT22;7083;48.854;9.158;2024-03-02T11:06:48;10.80;99.90
14016;DHT22;7083;48.854;9.158;2024-03-02T11:09:18;10.80;99.90
14016;DHT22;7083;48.854;9.158;2024-03-02T11:11:53;10.90;99.90
14016;DHT22;7083;48.854;9.158;2024-03-02T11:14:24;11.00;99.90
14016;DHT22;7083;48.854;9.158;2024-03-02T11:16:52;11.10;99.80
14016;DHT22;7083;48.854;9.158;2024-03-02T11:19:19;11.10;99.50
14016;DHT22;7083;48.854;9.158;2024-03-02T11:21:46;11.20;99.50
14016;DHT22;7083;48.854;9.158;2024-03-02T11:24:29;11.30;99.30
14016;DHT22;7083;48.854;9.158;2024-03-02T11:26:58;11.40;98.70
14016;DHT22;7083;48.854;9.158;2024-03-02T11:29:45;11.40;98.30
14016;DHT22;7083;48.854;9.158;2024-03-02T11:32:20;11.50;98.60
14016;DHT22;7083;48.854;9.158;2024-03-02T11:34:49;11.60;98.50
14016;DHT22;7083;48.854;9.158;2024-03-02T11:37:16;11.70;97.90
14016;DHT22;7083;48.854;9.158;2024-03-02T11:39:44;11.80;97.50
14016;DHT22;7083;48.854;9.158;2024-03-02T11:42:12;11.90;96.80
14016;DHT22;7083;48.854;9.158;2024-03-02T11:44:42;12.10;96.00
14016;DHT22;7083;48.854;9.158;2024-03-02T11:47:13;12.20;95.70
14016;DHT22;7083;48.854;9.158;2024-03-02T11:49:44;12.30;95.40
14016;DHT22;7083;48.854;9.158;2024-03-02T11:52:12;12.40;95.60
14016;DHT22;7083;48.854;9.158;2024-03-02T11:54:41;12.50;95.10
14016;DHT22;7083;48.854;9.158;2024-03-02T11:57:12;12.70;94.10
14016;DHT22;7083;48.854;9.158;2024-03-02T11:59:39;12.80;93.30
14016;DHT22;7083;48.854;9.158;2024-03-02T12:02:06;12.90;92.10
14016;DHT22;7083;48.854;9.158;2024-03-02T12:04:34;13.00;91.40
14016;DHT22;7083;48.854;9.158;2024-03-02T12:07:01;13.20;91.00
14016;DHT22;7083;48.854;9.158;2024-03-02T12:09:28;13.30;90.40
14016;DHT22;7083;48.854;9.158;2024-03-02T12:12:02;13.40;89.30
14016;DHT22;7083;48.854;9.158;2024-03-02T12:14:29;13.50;89.80
14016;DHT22;7083;48.854;9.158;2024-03-02T12:16:56;13.60;88.30
14016;DHT22;7083;48.854;9.158;2024-03-02T12:19:24;13.70;89.00
14016;DHT22;7083;48.854;9.158;2024-03-02T12:21:52;13.90;87.30
14016;DHT22;7083;48.854;9.158;2024-03-02T12:24:20;14.00;85.10
14016;DHT22;7083;48.854;9.158;2024-03-02T12:26:47;14.20;85.60
14016;DHT22;7083;48.854;9.158;2024-03-02T12:29:15;14.30;84.60
14016;DHT22;7083;48.854;9.158;2024-03-02T12:31:42;14.50;84.30
14016;DHT22;7083;48.854;9.158;2024-03-02T12:34:12;14.50;82.10
14016;DHT22;7083;48.854;9.158;2024-03-02T12:36:39;14.60;83.50
14016;DHT22;7083;48.854;9.158;2024-03-02T12:39:08;14.60;81.50
14016;DHT22;7083;48.854;9.158;2024-03-02T12:41:36;14.80;81.20
14016;DHT22;7083;48.854;9.158;2024-03-02T12:44:04;14.80;81.70
14016;DHT22;7083;48.854;9.158;2024-03-02T12:46:31;14.90;80.80
14016;DHT22;7083;48.854;9.158;2024-03-02T12:48:58;15.00;81.70
14016;DHT22;7083;48.854;9.158;2024-03-02T12:51:26;15.10;80.70
14016;DHT22;7083;48.854;9.158;2024-03-02T12:53:54;15.10;79.40
14016;DHT22;7083;48.854;9.158;2024-03-02T12:56:22;15.20;79.40
14016;DHT22;7083;48.854;9.158;2024-03-02T12:58:53;15.30;77.90
14016;DHT22;7083;48.854;9.158;2024-03-02T13:01:20;15.30;77.00
14016;DHT22;7083;48.854;9.158;2024-03-02T13:03:48;15.40;78.60
14016;DHT22;7083;48.854;9.158;2024-03-02T13:06:16;15.40;77.30
14016;DHT22;7083;48.854;9.158;2024-03-02T13:08:45;16.10;77.10
14016;DHT22;7083;48.854;9.158;2024-03-02T13:11:12;15.50;77.40
14016;DHT22;7083;48.854;9.158;2024-03-02T13:13:40;15.70;78.90
14016;DHT22;7083;48.854;9.158;2024-03-02T13:16:08;15.70;75.20
14016;DHT22;7083;48.854;9.158;2024-03-02T13:18:36;15.60;75.30
14016;DHT22;7083;48.854;9.158;2024-03-02T13:21:03;15.60;75.10
14016;DHT22;7083;48.854;9.158;2024-03-02T13:23:30;15.80;77.40
14016;DHT22;7083;48.854;9.158;2024-03-02T13:25:57;15.80;76.40
14016;DHT22;7083;48.854;9.158;2024-03-02T13:28:24;15.90;76.80
14016;DHT22;7083;48.854;9.158;2024-03-02T13:30:52;16.10;76.40
14016;DHT22;7083;48.854;9.158;2024-03-02T13:33:19;16.20;73.80
14016;DHT22;7083;48.854;9.158;2024-03-02T13:35:48;16.20;75.30
14016;DHT22;7083;48.854;9.158;2024-03-02T13:38:15;16.40;76.40
14016;DHT22;7083;48.854;9.158;2024-03-02T13:40:42;16.50;73.40
14016;DHT22;7083;48.854;9.158;2024-03-02T13:43:08;16.50;73.80
14016;DHT22;7083;48.854;9.158;2024-03-02T13:45:36;16.50;73.90
14016;DHT22;7083;48.854;9.158;2024-03-02T13:48:05;16.60;73.80
14016;DHT22;7083;48.854;9.158;2024-03-02T13:50:32;16.70;73.70
14016;DHT22;7083;48.854;9.158;2024-03-02T13:52:58;16.80;74.50
14016;DHT22;7083;48.854;9.158;2024-03-02T13:55:25;16.90;74.10
14016;DHT22;7083;48.854;9.158;2024-03-02T13:57:52;17.40;74.00
14016;DHT22;7083;48.854;9.158;2024-03-02T14:00:21;17.60;73.20
14016;DHT22;7083;48.854;9.158;2024-03-02T14:02:48;17.30;72.70
14016;DHT22;7083;48.854;9.158;2024-03-02T14:05:16;17.50;72.70
14016;DHT22;7083;48.854;9.158;2024-03-02T14:07:44;18.30;71.80
14016;DHT22;7083;48.854;9.158;2024-03-02T14:10:11;17.90;71.90
14016;DHT22;7083;48.854;9.158;2024-03-02T14:12:41;18.00;71.10
14016;DHT22;7083;48.854;9.158;2024-03-02T14:15:08;18.10;71.10
14016;DHT22;7083;48.854;9.158;2024-03-02T14:17:35;18.40;69.80
14016;DHT22;7083;48.854;9.158;2024-03-02T14:20:02;18.50;67.40
14016;DHT22;7083;48.854;9.158;2024-03-02T14:22:31;18.60;66.90
14016;DHT22;7083;48.854;9.158;2024-03-02T14:24:59;20.30;69.20
14016;DHT22;7083;48.854;9.158;2024-03-02T14:27:26;19.10;67.40
14016;DHT22;7083;48.854;9.158;2024-03-02T14:29:52;19.30;65.30
14016;DHT22;7083;48.854;9.158;2024-03-02T14:32:19;19.20;66.10
14016;DHT22;7083;48.854;9.158;2024-03-02T14:34:46;18.90;64.10
14016;DHT22;7083;48.854;9.158;2024-03-02T14:37:13;18.50;65.40
14016;DHT22;7083;48.854;9.158;2024-03-02T14:39:42;18.20;66.20
14016;DHT22;7083;48.854;9.158;2024-03-02T14:42:09;17.80;68.50
14016;DHT22;7083;48.854;9.158;2024-03-02T14:44:36;17.80;66.30
14016;DHT22;7083;48.854;9.158;2024-03-02T14:47:03;17.60;65.50
14016;DHT22;7083;48.854;9.158;2024-03-02T14:49:30;17.50;65.30
14016;DHT22;7083;48.854;9.158;2024-03-02T14:51:59;17.40;69.20
14016;DHT22;7083;48.854;9.158;2024-03-02T14:54:25;17.20;69.90
14016;DHT22;7083;48.854;9.158;2024-03-02T14:56:53;17.10;68.10
14016;DHT22;7083;48.854;9.158;2024-03-02T14:59:21;18.00;68.70
14016;DHT22;7083;48.854;9.158;2024-03-02T15:01:47;17.10;68.10
14016;DHT22;7083;48.854;9.158;2024-03-02T15:04:15;17.20;69.40
14016;DHT22;7083;48.854;9.158;2024-03-02T15:06:44;17.40;69.60
14016;DHT22;7083;48.854;9.158;2024-03-02T15:09:11;17.90;67.00
14016;DHT22;7083;48.854;9.158;2024-03-02T15:11:37;19.20;63.30
14016;DHT22;7083;48.854;9.158;2024-03-02T15:14:06;20.80;61.60
14016;DHT22;7083;48.854;9.158;2024-03-02T15:16:32;21.60;59.00
14016;DHT22;7083;48.854;9.158;2024-03-02T15:18:59;21.80;58.00
14016;DHT22;7083;48.854;9.158;2024-03-02T15:21:26;21.80;56.90
14016;DHT22;7083;48.854;9.158;2024-03-02T15:23:52;21.50;57.30
14016;DHT22;7083;48.854;9.158;2024-03-02T15:26:19;21.30;57.30
14016;DHT22;7083;48.854;9.158;2024-03-02T15:28:46;20.70;56.70
14016;DHT22;7083;48.854;9.158;2024-03-02T15:31:14;20.00;57.80
14016;DHT22;7083;48.854;9.158;2024-03-02T15:33:42;19.40;59.00
14016;DHT22;7083;48.854;9.158;2024-03-02T15:36:09;18.70;59.60
14016;DHT22;7083;48.854;9.158;2024-03-02T15:38:36;18.30;61.60
14016;DHT22;7083;48.854;9.158;2024-03-02T15:41:03;17.90;62.40
14016;DHT22;7083;48.854;9.158;2024-03-02T15:43:30;17.40;62.80
14016;DHT22;7083;48.854;9.158;2024-03-02T15:45:58;17.70;64.60
14016;DHT22;7083;48.854;9.158;2024-03-02T15:48:26;16.90;64.70
14016;DHT22;7083;48.854;9.158;2024-03-02T15:50:53;16.50;65.10
14016;DHT22;7083;48.854;9.158;2024-03-02T15:53:21;16.30;66.50
14016;DHT22;7083;48.854;9.158;2024-03-02T15:55:47;16.40;67.80
14016;DHT22;7083;48.854;9.158;2024-03-02T15:58:14;15.70;68.40
14016;DHT22;7083;48.854;9.158;2024-03-02T16:00:41;15.60;69.00
14016;DHT22;7083;48.854;9.158;2024-03-02T16:03:08;15.20;70.80
14016;DHT22;7083;48.854;9.158;2024-03-02T16:05:36;15.00;71.70
14016;DHT22;7083;48.854;9.158;2024-03-02T16:08:03;15.40;73.20
14016;DHT22;7083;48.854;9.158;2024-03-02T16:10:30;14.50;73.50
14016;DHT22;7083;48.854;9.158;2024-03-02T16:12:57;14.30;73.80
14016;DHT22;7083;48.854;9.158;2024-03-02T16:15:26;14.50;75.60
14016;DHT22;7083;48.854;9.158;2024-03-02T16:17:53;14.00;75.80
14016;DHT22;7083;48.854;9.158;2024-03-02T16:20:24;13.90;76.50
14016;DHT22;7083;48.854;9.158;2024-03-02T16:22:52;13.70;77.20
14016;DHT22;7083;48.854;9.158;2024-03-02T16:25:18;13.60;78.20
14016;DHT22;7083;48.854;9.158;2024-03-02T16:27:50;13.50;78.10
14016;DHT22;7083;48.854;9.158;2024-03-02T16:30:17;13.30;78.80